createdAt,value
2016-08-04T00:00:26.856Z,0
2016-08-04T00:01:26.853Z,0
2016-08-04T00:02:27.612Z,0
2016-08-04T00:03:26.911Z,0
2016-08-04T00:04:26.935Z,0
2016-08-04T00:05:26.941Z,0
2016-08-04T00:06:26.958Z,0
2016-08-04T00:07:26.981Z,0
2016-08-04T00:08:27.009Z,0
2016-08-04T00:09:27.035Z,0
2016-08-04T00:10:27.055Z,0
2016-08-04T00:11:27.064Z,0
2016-08-04T00:12:27.076Z,0
2016-08-04T00:13:27.109Z,0
2016-08-04T00:14:27.150Z,0
2016-08-04T00:15:27.140Z,0
2016-08-04T00:16:27.160Z,0
2016-08-04T00:17:27.181Z,0
2016-08-04T00:18:27.206Z,0
2016-08-04T00:20:27.238Z,0
2016-08-04T00:21:27.256Z,0
2016-08-04T00:22:27.273Z,0
2016-08-04T00:23:27.300Z,0
2016-08-04T00:24:27.310Z,0
2016-08-04T00:25:27.339Z,0
2016-08-04T00:26:27.349Z,0
2016-08-04T00:27:27.375Z,0
2016-08-04T00:28:27.391Z,0
2016-08-04T00:29:27.408Z,0
2016-08-04T00:30:27.436Z,0
2016-08-04T00:31:27.449Z,0
2016-08-04T00:32:27.466Z,0
2016-08-04T00:33:27.487Z,0
2016-08-04T00:34:27.523Z,0
2016-08-04T00:35:27.525Z,0
2016-08-04T00:36:27.542Z,0
2016-08-04T00:37:27.571Z,0
2016-08-04T00:38:27.579Z,0
2016-08-04T00:39:27.598Z,0
2016-08-04T00:40:27.623Z,0
2016-08-04T00:41:27.657Z,0
2016-08-04T00:42:27.659Z,0
2016-08-04T00:43:27.681Z,0
2016-08-04T00:44:27.688Z,0
2016-08-04T00:45:27.725Z,0
2016-08-04T00:46:27.739Z,0
2016-08-04T00:47:27.766Z,0
2016-08-04T00:48:27.784Z,0
2016-08-04T00:49:27.793Z,0
2016-08-04T00:50:27.804Z,0
2016-08-04T00:51:27.842Z,0
2016-08-04T00:52:27.863Z,0
2016-08-04T00:53:27.872Z,0
2016-08-04T00:54:27.886Z,0
2016-08-04T00:55:27.903Z,0
2016-08-04T00:56:27.934Z,0
2016-08-04T00:57:27.945Z,0
2016-08-04T00:58:27.965Z,0
2016-08-04T00:59:27.981Z,0
2016-08-04T01:00:28.014Z,0
2016-08-04T01:01:28.027Z,0
2016-08-04T01:02:28.036Z,0
2016-08-04T01:03:28.065Z,0
2016-08-04T01:04:28.082Z,0
2016-08-04T01:05:28.102Z,0
2016-08-04T01:06:28.120Z,0
2016-08-04T01:07:28.142Z,0
2016-08-04T01:08:28.168Z,0
2016-08-04T01:09:28.191Z,0
2016-08-04T01:10:28.200Z,0
2016-08-04T01:11:28.230Z,0
2016-08-04T01:12:28.250Z,0
2016-08-04T01:13:28.254Z,0
2016-08-04T01:14:28.292Z,0
2016-08-04T01:15:28.301Z,0
2016-08-04T01:16:28.302Z,0
2016-08-04T01:17:28.333Z,0
2016-08-04T01:18:28.364Z,0
2016-08-04T01:19:28.382Z,0
2016-08-04T01:20:28.390Z,0
2016-08-04T01:21:28.433Z,0
2016-08-04T01:22:28.431Z,0
2016-08-04T01:23:28.451Z,0
2016-08-04T01:24:28.476Z,0
2016-08-04T01:25:28.482Z,0
2016-08-04T01:26:28.505Z,0
2016-08-04T01:27:28.514Z,0
2016-08-04T01:28:28.551Z,0
2016-08-04T01:29:28.568Z,0
2016-08-04T01:30:28.592Z,0
2016-08-04T01:31:28.615Z,0
2016-08-04T01:32:28.620Z,0
2016-08-04T01:33:28.651Z,0
2016-08-04T01:34:28.658Z,0
2016-08-04T01:35:28.690Z,0
2016-08-04T01:36:28.698Z,0
2016-08-04T01:37:28.727Z,0
2016-08-04T01:38:28.729Z,0
2016-08-04T01:39:28.763Z,0
2016-08-04T01:40:28.777Z,0
2016-08-04T01:41:28.791Z,0
2016-08-04T01:42:28.833Z,0
2016-08-04T01:43:28.827Z,0
2016-08-04T01:44:28.865Z,0
2016-08-04T01:45:28.879Z,0
2016-08-04T01:46:28.884Z,0
2016-08-04T01:47:28.927Z,0
2016-08-04T01:48:28.931Z,0
2016-08-04T01:49:28.958Z,0
2016-08-04T01:50:28.970Z,0
2016-08-04T01:51:28.999Z,0
2016-08-04T01:52:28.995Z,0
2016-08-04T01:53:29.034Z,0
2016-08-04T01:54:29.044Z,0
2016-08-04T01:55:29.059Z,0
2016-08-04T01:56:29.087Z,0
2016-08-04T01:57:29.091Z,0
2016-08-04T01:58:29.111Z,0
2016-08-04T01:59:29.147Z,0
2016-08-04T02:00:29.152Z,0
2016-08-04T02:01:29.180Z,0
2016-08-04T02:02:29.191Z,0
2016-08-04T02:03:29.227Z,0
2016-08-04T02:04:29.224Z,0
2016-08-04T02:05:29.252Z,0
2016-08-04T02:06:29.278Z,0
2016-08-04T02:07:29.297Z,0
2016-08-04T02:08:29.320Z,0
2016-08-04T02:09:29.322Z,0
2016-08-04T02:10:29.354Z,0
2016-08-04T02:11:29.369Z,0
2016-08-04T02:12:29.381Z,0
2016-08-04T02:13:29.396Z,0
2016-08-04T02:14:29.425Z,0
2016-08-04T02:15:29.434Z,0
2016-08-04T02:16:29.470Z,0
2016-08-04T02:17:29.487Z,0
2016-08-04T02:18:29.491Z,0
2016-08-04T02:19:29.524Z,0
2016-08-04T02:20:29.550Z,0
2016-08-04T02:21:29.555Z,0
2016-08-04T02:22:29.593Z,0
2016-08-04T02:23:29.600Z,0
2016-08-04T02:24:29.609Z,0
2016-08-04T02:25:29.641Z,0
2016-08-04T02:26:29.651Z,0
2016-08-04T02:27:29.680Z,0
2016-08-04T02:28:29.684Z,0
2016-08-04T02:29:29.721Z,0
2016-08-04T02:30:29.729Z,0
2016-08-04T02:31:29.756Z,0
2016-08-04T02:32:29.767Z,0
2016-08-04T02:33:29.784Z,0
2016-08-04T02:34:29.818Z,0
2016-08-04T02:35:29.888Z,0
2016-08-04T02:36:29.845Z,0
2016-08-04T02:37:29.865Z,0
2016-08-04T02:38:29.885Z,0
2016-08-04T02:39:29.910Z,0
2016-08-04T02:40:29.912Z,0
2016-08-04T02:41:29.951Z,0
2016-08-04T02:42:29.946Z,0
2016-08-04T02:43:29.983Z,0
2016-08-04T02:44:29.992Z,0
2016-08-04T02:45:30.026Z,0
2016-08-04T02:46:30.041Z,0
2016-08-04T02:47:30.055Z,0
2016-08-04T02:48:30.067Z,0
2016-08-04T02:49:30.088Z,0
2016-08-04T02:50:30.168Z,0
2016-08-04T02:51:30.150Z,0
2016-08-04T02:52:30.147Z,0
2016-08-04T02:53:30.174Z,0
2016-08-04T02:54:30.191Z,0
2016-08-04T02:55:30.220Z,0
2016-08-04T02:56:30.231Z,0
2016-08-04T02:57:30.251Z,0
2016-08-04T02:58:30.267Z,0
2016-08-04T02:59:30.277Z,0
2016-08-04T03:00:30.327Z,0
2016-08-04T03:01:30.323Z,0
2016-08-04T03:02:30.357Z,0
2016-08-04T03:03:30.362Z,0
2016-08-04T03:04:30.381Z,0
2016-08-04T03:06:30.420Z,0
2016-08-04T03:07:30.445Z,0
2016-08-04T03:08:30.459Z,0
2016-08-04T03:09:30.477Z,0
2016-08-04T03:10:30.495Z,0
2016-08-04T03:11:30.530Z,0
2016-08-04T03:12:30.540Z,0
2016-08-04T03:13:30.558Z,0
2016-08-04T03:14:30.591Z,0
2016-08-04T03:15:30.608Z,0
2016-08-04T03:16:30.620Z,0
2016-08-04T03:17:30.633Z,0
2016-08-04T03:18:30.642Z,0
2016-08-04T03:19:30.678Z,0
2016-08-04T03:20:30.754Z,0
2016-08-04T03:21:30.716Z,0
2016-08-04T03:22:30.735Z,0
2016-08-04T03:23:30.750Z,0
2016-08-04T03:24:30.767Z,0
2016-08-04T03:25:30.787Z,0
2016-08-04T03:26:30.806Z,0
2016-08-04T03:27:30.822Z,0
2016-08-04T03:28:30.847Z,0
2016-08-04T03:29:30.860Z,0
2016-08-04T03:30:30.899Z,0
2016-08-04T03:31:30.905Z,0
2016-08-04T03:32:30.942Z,0
2016-08-04T03:33:30.939Z,0
2016-08-04T03:34:30.959Z,0
2016-08-04T03:35:31.086Z,0
2016-08-04T03:36:30.994Z,0
2016-08-04T03:37:31.013Z,0
2016-08-04T03:38:31.052Z,0
2016-08-04T03:39:31.056Z,0
2016-08-04T03:40:31.069Z,0
2016-08-04T03:41:31.096Z,0
2016-08-04T03:42:31.124Z,0
2016-08-04T03:43:31.141Z,0
2016-08-04T03:44:31.160Z,0
2016-08-04T03:45:31.163Z,0
2016-08-04T03:46:31.192Z,0
2016-08-04T03:47:31.213Z,0
2016-08-04T03:48:31.234Z,0
2016-08-04T03:49:31.248Z,0
2016-08-04T03:51:31.290Z,0
2016-08-04T03:52:31.307Z,0
2016-08-04T03:53:31.313Z,0
2016-08-04T03:54:31.349Z,0
2016-08-04T03:55:31.375Z,0
2016-08-04T03:56:31.396Z,0
2016-08-04T03:57:31.397Z,0
2016-08-04T03:58:31.425Z,0
2016-08-04T03:59:31.432Z,0
2016-08-04T04:00:31.463Z,0
2016-08-04T04:01:31.463Z,5
2016-08-04T04:02:31.490Z,5
2016-08-04T04:03:31.524Z,5
2016-08-04T04:04:31.539Z,5
2016-08-04T04:05:31.553Z,5
2016-08-04T04:06:31.565Z,5
2016-08-04T04:07:31.601Z,5
2016-08-04T04:08:31.607Z,5
2016-08-04T04:09:31.634Z,5
2016-08-04T04:10:31.644Z,10
2016-08-04T04:11:31.671Z,10
2016-08-04T04:12:31.693Z,10
2016-08-04T04:13:31.723Z,15
2016-08-04T04:14:31.720Z,15
2016-08-04T04:15:31.749Z,15
2016-08-04T04:16:31.782Z,15
2016-08-04T04:17:31.787Z,15
2016-08-04T04:18:31.815Z,20
2016-08-04T04:19:31.827Z,20
2016-08-04T04:21:31.861Z,20
2016-08-04T04:22:31.872Z,20
2016-08-04T04:23:31.911Z,20
2016-08-04T04:24:31.917Z,20
2016-08-04T04:25:31.937Z,25
2016-08-04T04:26:31.967Z,25
2016-08-04T04:27:31.980Z,25
2016-08-04T04:28:31.992Z,25
2016-08-04T04:29:32.028Z,25
2016-08-04T04:30:32.038Z,25
2016-08-04T04:31:32.059Z,25
2016-08-04T04:32:32.077Z,25
2016-08-04T04:33:32.090Z,25
2016-08-04T04:34:32.842Z,25
2016-08-04T04:36:32.155Z,25
2016-08-04T04:37:32.177Z,25
2016-08-04T04:38:32.194Z,25
2016-08-04T04:39:32.215Z,25
2016-08-04T04:40:32.225Z,30
2016-08-04T04:41:32.289Z,30
2016-08-04T04:42:32.982Z,30
2016-08-04T04:43:32.318Z,30
2016-08-04T04:44:32.318Z,30
2016-08-04T04:45:32.401Z,30
2016-08-04T04:46:32.346Z,30
2016-08-04T04:47:32.401Z,30
2016-08-04T04:48:32.384Z,30
2016-08-04T04:49:32.410Z,30
2016-08-04T04:50:32.424Z,30
2016-08-04T04:51:32.489Z,30
2016-08-04T04:52:32.474Z,35
2016-08-04T04:53:32.497Z,35
2016-08-04T04:54:32.491Z,35
2016-08-04T04:55:32.534Z,40
2016-08-04T04:56:32.528Z,40
2016-08-04T04:57:32.562Z,45
2016-08-04T04:58:32.577Z,50
2016-08-04T04:59:32.601Z,50
2016-08-04T05:00:32.611Z,55
2016-08-04T05:01:32.634Z,60
2016-08-04T05:02:32.652Z,60
2016-08-04T05:03:32.671Z,60
2016-08-04T05:04:32.689Z,65
2016-08-04T05:05:32.709Z,65
2016-08-04T05:06:32.739Z,65
2016-08-04T05:07:32.748Z,65
2016-08-04T05:08:32.783Z,65
2016-08-04T05:09:32.785Z,70
2016-08-04T05:10:32.793Z,70
2016-08-04T05:11:32.834Z,65
2016-08-04T05:12:32.859Z,65
2016-08-04T05:13:32.861Z,65
2016-08-04T05:14:32.900Z,70
2016-08-04T05:15:32.895Z,70
2016-08-04T05:16:32.925Z,70
2016-08-04T05:17:32.938Z,70
2016-08-04T05:18:32.967Z,75
2016-08-04T05:19:32.989Z,75
2016-08-04T05:20:33.003Z,75
2016-08-04T05:21:33.020Z,80
2016-08-04T05:22:33.044Z,80
2016-08-04T05:23:33.054Z,75
2016-08-04T05:24:33.076Z,80
2016-08-04T05:25:33.102Z,80
2016-08-04T05:26:33.107Z,85
2016-08-04T05:27:33.133Z,80
2016-08-04T05:28:33.177Z,80
2016-08-04T05:29:33.182Z,80
2016-08-04T05:30:33.179Z,80
2016-08-04T05:31:33.213Z,80
2016-08-04T05:32:33.241Z,85
2016-08-04T05:33:33.249Z,85
2016-08-04T05:34:33.268Z,85
2016-08-04T05:35:33.284Z,85
2016-08-04T05:36:33.312Z,85
2016-08-04T05:37:33.322Z,85
2016-08-04T05:38:33.354Z,85
2016-08-04T05:39:33.375Z,90
2016-08-04T05:40:33.400Z,90
2016-08-04T05:41:33.407Z,90
2016-08-04T05:42:33.439Z,100
2016-08-04T05:43:33.448Z,95
2016-08-04T05:44:33.484Z,90
2016-08-04T05:45:33.494Z,90
2016-08-04T05:46:33.508Z,95
2016-08-04T05:47:33.532Z,100
2016-08-04T05:48:33.553Z,100
2016-08-04T05:49:33.569Z,100
2016-08-04T05:50:34.292Z,105
2016-08-04T05:51:33.610Z,110
2016-08-04T05:52:33.632Z,110
2016-08-04T05:53:33.642Z,115
2016-08-04T05:54:33.663Z,115
2016-08-04T05:55:33.677Z,115
2016-08-04T05:56:33.708Z,115
2016-08-04T05:57:33.723Z,115
2016-08-04T05:58:33.763Z,115
2016-08-04T05:59:33.752Z,115
2016-08-04T06:00:33.795Z,115
2016-08-04T06:01:33.799Z,120
2016-08-04T06:02:33.824Z,120
2016-08-04T06:03:33.856Z,125
2016-08-04T06:04:33.854Z,125
2016-08-04T06:05:33.881Z,130
2016-08-04T06:06:33.896Z,130
2016-08-04T06:07:33.927Z,130
2016-08-04T06:08:33.952Z,130
2016-08-04T06:09:33.968Z,135
2016-08-04T06:10:33.976Z,135
2016-08-04T06:11:34.004Z,135
2016-08-04T06:12:34.045Z,135
2016-08-04T06:13:34.050Z,140
2016-08-04T06:14:34.062Z,145
2016-08-04T06:15:34.077Z,145
2016-08-04T06:16:34.104Z,165
2016-08-04T06:17:34.130Z,190
2016-08-04T06:18:34.860Z,195
2016-08-04T06:19:34.160Z,190
2016-08-04T06:20:34.191Z,190
2016-08-04T06:21:34.201Z,160
2016-08-04T06:22:34.220Z,165
2016-08-04T06:23:34.245Z,155
2016-08-04T06:24:34.270Z,165
2016-08-04T06:25:34.292Z,145
2016-08-04T06:26:34.309Z,180
2016-08-04T06:27:34.321Z,160
2016-08-04T06:28:34.362Z,145
2016-08-04T06:29:34.356Z,135
2016-08-04T06:30:34.384Z,145
2016-08-04T06:31:34.409Z,155
2016-08-04T06:32:34.436Z,150
2016-08-04T06:33:35.165Z,150
2016-08-04T06:34:34.474Z,195
2016-08-04T06:35:34.521Z,205
2016-08-04T06:36:34.501Z,170
2016-08-04T06:37:34.543Z,165
2016-08-04T06:38:34.560Z,185
2016-08-04T06:39:34.634Z,185
2016-08-04T06:40:34.588Z,205
2016-08-04T06:41:34.641Z,200
2016-08-04T06:42:34.645Z,220
2016-08-04T06:43:34.726Z,230
2016-08-04T06:44:34.665Z,235
2016-08-04T06:45:34.730Z,220
2016-08-04T06:46:34.722Z,210
2016-08-04T06:47:34.759Z,205
2016-08-04T06:48:34.757Z,205
2016-08-04T06:49:34.792Z,185
2016-08-04T06:50:34.801Z,185
2016-08-04T06:51:34.851Z,175
2016-08-04T06:52:34.875Z,180
2016-08-04T06:53:34.869Z,185
2016-08-04T06:54:34.892Z,190
2016-08-04T06:55:34.897Z,200
2016-08-04T06:56:34.927Z,190
2016-08-04T06:57:34.944Z,205
2016-08-04T06:58:34.966Z,220
2016-08-04T06:59:34.986Z,225
2016-08-04T07:00:35.014Z,230
2016-08-04T07:01:35.030Z,225
2016-08-04T07:02:35.038Z,225
2016-08-04T07:03:35.085Z,205
2016-08-04T07:04:35.100Z,205
2016-08-04T07:05:35.118Z,220
2016-08-04T07:06:35.181Z,225
2016-08-04T07:07:35.157Z,205
2016-08-04T07:08:35.177Z,185
2016-08-04T07:09:35.190Z,185
2016-08-04T07:10:35.220Z,180
2016-08-04T07:11:35.250Z,180
2016-08-04T07:12:35.267Z,175
2016-08-04T07:13:35.278Z,175
2016-08-04T07:14:35.316Z,170
2016-08-04T07:15:35.325Z,170
2016-08-04T07:16:35.356Z,170
2016-08-04T07:17:35.366Z,170
2016-08-04T07:18:35.393Z,165
2016-08-04T07:19:35.416Z,165
2016-08-04T07:20:35.424Z,160
2016-08-04T07:21:35.471Z,155
2016-08-04T07:22:35.475Z,155
2016-08-04T07:23:35.513Z,150
2016-08-04T07:24:35.525Z,145
2016-08-04T07:25:35.551Z,145
2016-08-04T07:26:35.577Z,130
2016-08-04T07:27:35.612Z,120
2016-08-04T07:28:35.608Z,110
2016-08-04T07:29:35.622Z,105
2016-08-04T07:30:35.656Z,105
2016-08-04T07:31:35.662Z,115
2016-08-04T07:32:35.679Z,120
2016-08-04T07:33:35.702Z,120
2016-08-04T07:34:35.714Z,130
2016-08-04T07:35:35.746Z,130
2016-08-04T07:36:35.785Z,135
2016-08-04T07:37:35.806Z,150
2016-08-04T07:38:35.821Z,170
2016-08-04T07:39:35.837Z,180
2016-08-04T07:41:07.896Z,175
2016-08-04T07:43:20.914Z,165
2016-08-04T07:44:20.986Z,170
2016-08-04T07:46:21.019Z,155
2016-08-04T07:47:21.031Z,145
2016-08-04T07:48:21.031Z,140
2016-08-04T07:48:49.007Z,145
2016-08-04T07:49:49.030Z,150
2016-08-04T07:50:49.078Z,155
2016-08-04T07:51:49.076Z,155
2016-08-04T07:52:49.131Z,160
2016-08-04T07:53:49.108Z,160
2016-08-04T07:54:49.122Z,160
2016-08-04T07:55:49.146Z,170
2016-08-04T07:56:49.179Z,185
2016-08-04T07:57:49.184Z,190
2016-08-04T07:58:49.221Z,190
2016-08-04T07:59:49.225Z,195
2016-08-04T08:00:49.255Z,200
2016-08-04T08:01:49.273Z,205
2016-08-04T08:02:49.300Z,205
2016-08-04T08:03:49.309Z,205
2016-08-04T08:04:49.326Z,205
2016-08-04T08:05:49.363Z,200
2016-08-04T08:06:49.385Z,200
2016-08-04T08:07:49.396Z,200
2016-08-04T08:08:49.417Z,195
2016-08-04T08:09:49.434Z,200
2016-08-04T08:10:49.464Z,200
2016-08-04T08:11:49.481Z,205
2016-08-04T08:12:49.503Z,205
2016-08-04T08:13:49.518Z,210
2016-08-04T08:14:49.557Z,215
2016-08-04T08:15:49.548Z,220
2016-08-04T08:16:49.589Z,225
2016-08-04T08:17:49.608Z,225
2016-08-04T08:18:49.627Z,230
2016-08-04T08:19:49.648Z,230
2016-08-04T08:20:49.669Z,235
2016-08-04T08:21:49.689Z,240
2016-08-04T08:22:49.718Z,245
2016-08-04T08:23:49.734Z,255
2016-08-04T08:24:49.770Z,260
2016-08-04T08:25:49.778Z,265
2016-08-04T08:26:49.792Z,275
2016-08-04T08:27:49.821Z,270
2016-08-04T08:28:49.823Z,265
2016-08-04T08:29:49.859Z,260
2016-08-04T08:30:49.884Z,255
2016-08-04T08:31:49.909Z,250
2016-08-04T08:32:49.927Z,245
2016-08-04T08:33:49.943Z,240
2016-08-04T08:34:49.981Z,240
2016-08-04T08:35:50.002Z,235
2016-08-04T08:36:50.030Z,230
2016-08-04T08:37:50.036Z,225
2016-08-04T08:38:50.045Z,215
2016-08-04T08:39:50.082Z,210
2016-08-04T08:40:50.096Z,205
2016-08-04T08:41:50.132Z,200
2016-08-04T08:42:50.131Z,185
2016-08-04T08:43:50.164Z,170
2016-08-04T08:44:50.207Z,160
2016-08-04T08:45:50.204Z,160
2016-08-04T08:46:50.224Z,175
2016-08-04T08:47:50.237Z,185
2016-08-04T08:48:50.271Z,185
2016-08-04T08:49:50.281Z,180
2016-08-04T08:50:50.322Z,185
2016-08-04T08:51:50.348Z,185
2016-08-04T08:52:50.365Z,190
2016-08-04T08:53:50.367Z,210
2016-08-04T08:54:50.390Z,230
2016-08-04T08:55:50.421Z,230
2016-08-04T08:56:50.454Z,225
2016-08-04T08:57:50.473Z,225
2016-08-04T08:58:50.484Z,220
2016-08-04T08:59:50.517Z,225
2016-08-04T09:00:50.540Z,235
2016-08-04T09:01:50.561Z,240
2016-08-04T09:02:50.579Z,265
2016-08-04T09:03:50.581Z,235
2016-08-04T09:04:50.615Z,230
2016-08-04T09:05:50.639Z,235
2016-08-04T09:06:50.667Z,235
2016-08-04T09:07:50.677Z,235
2016-08-04T09:08:50.733Z,220
2016-08-04T09:09:50.726Z,230
2016-08-04T09:10:50.762Z,240
2016-08-04T09:11:50.816Z,230
2016-08-04T09:12:50.786Z,225
2016-08-04T09:13:50.840Z,210
2016-08-04T09:14:50.872Z,190
2016-08-04T09:15:50.870Z,185
2016-08-04T09:16:50.931Z,180
2016-08-04T09:17:50.904Z,180
2016-08-04T09:18:50.950Z,180
2016-08-04T09:19:50.960Z,190
2016-08-04T09:20:51.006Z,205
2016-08-04T09:21:51.031Z,210
2016-08-04T09:22:50.997Z,210
2016-08-04T09:23:51.071Z,215
2016-08-04T09:24:51.111Z,225
2016-08-04T09:25:51.118Z,230
2016-08-04T09:26:51.137Z,240
2016-08-04T09:27:51.140Z,240
2016-08-04T09:28:51.143Z,240
2016-08-04T09:29:51.163Z,240
2016-08-04T09:30:51.216Z,245
2016-08-04T09:31:51.213Z,250
2016-08-04T09:32:51.230Z,255
2016-08-04T09:33:51.246Z,250
2016-08-04T09:34:51.265Z,245
2016-08-04T09:35:51.295Z,240
2016-08-04T09:37:51.343Z,225
2016-08-04T09:38:51.363Z,220
2016-08-04T09:39:51.426Z,220
2016-08-04T09:40:51.421Z,220
2016-08-04T09:41:51.453Z,220
2016-08-04T09:42:51.439Z,220
2016-08-04T09:43:51.523Z,225
2016-08-04T09:44:51.488Z,225
2016-08-04T09:45:51.516Z,230
2016-08-04T09:46:51.524Z,230
2016-08-04T09:47:51.561Z,230
2016-08-04T09:48:51.572Z,230
2016-08-04T09:49:51.605Z,225
2016-08-04T09:50:51.621Z,220
2016-08-04T09:52:51.661Z,210
2016-08-04T09:53:51.680Z,210
2016-08-04T09:54:51.708Z,205
2016-08-04T09:55:51.728Z,200
2016-08-04T09:56:51.752Z,210
2016-08-04T09:57:51.768Z,230
2016-08-04T09:58:51.792Z,240
2016-08-04T09:59:51.824Z,250
2016-08-04T10:00:51.843Z,260
2016-08-04T10:01:51.867Z,270
2016-08-04T10:02:51.879Z,280
2016-08-04T10:03:51.895Z,285
2016-08-04T10:04:51.932Z,285
2016-08-04T10:05:51.954Z,285
2016-08-04T10:06:51.974Z,280
2016-08-04T10:07:51.998Z,270
2016-08-04T10:08:52.020Z,265
2016-08-04T10:09:52.041Z,270
2016-08-04T10:10:52.059Z,275
2016-08-04T10:11:52.080Z,270
2016-08-04T10:12:52.113Z,280
2016-08-04T10:13:52.133Z,270
2016-08-04T10:14:52.151Z,265
2016-08-04T10:15:52.167Z,265
2016-08-04T10:17:07.040Z,255
2016-08-04T10:17:52.209Z,245
2016-08-04T10:18:52.248Z,235
2016-08-04T10:19:52.269Z,235
2016-08-04T10:20:52.271Z,225
2016-08-04T10:21:52.296Z,225
2016-08-04T10:22:52.318Z,235
2016-08-04T10:23:52.351Z,245
2016-08-04T10:24:52.395Z,260
2016-08-04T10:25:52.386Z,270
2016-08-04T10:26:52.409Z,265
2016-08-04T10:27:52.431Z,270
2016-08-04T10:28:52.470Z,290
2016-08-04T10:29:52.475Z,295
2016-08-04T10:30:52.498Z,300
2016-08-04T10:31:52.513Z,300
2016-08-04T10:32:52.548Z,300
2016-08-04T10:33:52.593Z,300
2016-08-04T10:34:52.598Z,305
2016-08-04T10:35:52.611Z,295
2016-08-04T10:36:52.629Z,300
2016-08-04T10:37:52.661Z,320
2016-08-04T10:38:52.673Z,320
2016-08-04T10:39:52.714Z,335
2016-08-04T10:40:52.731Z,335
2016-08-04T10:41:52.752Z,330
2016-08-04T10:42:52.764Z,325
2016-08-04T10:43:52.825Z,325
2016-08-04T10:44:52.858Z,330
2016-08-04T10:45:52.859Z,330
2016-08-04T10:46:53.574Z,320
2016-08-04T10:47:52.926Z,310
2016-08-04T10:48:52.929Z,315
2016-08-04T10:49:52.937Z,315
2016-08-04T10:50:53.011Z,305
2016-08-04T10:51:52.973Z,305
2016-08-04T10:52:52.995Z,300
2016-08-04T10:53:53.023Z,295
2016-08-04T10:54:53.045Z,295
2016-08-04T10:55:53.071Z,295
2016-08-04T10:56:53.086Z,300
2016-08-04T10:57:53.112Z,300
2016-08-04T10:58:53.147Z,300
2016-08-04T10:59:53.161Z,305
2016-08-04T11:00:53.900Z,300
2016-08-04T11:01:53.193Z,300
2016-08-04T11:02:53.960Z,300
2016-08-04T11:03:53.303Z,305
2016-08-04T11:04:53.308Z,300
2016-08-04T11:05:53.294Z,310
2016-08-04T11:06:53.341Z,300
2016-08-04T11:07:53.387Z,305
2016-08-04T11:08:53.392Z,305
2016-08-04T11:09:53.385Z,320
2016-08-04T11:10:53.464Z,305
2016-08-04T11:11:53.482Z,300
2016-08-04T11:12:53.511Z,280
2016-08-04T11:13:53.514Z,275
2016-08-04T11:14:53.511Z,270
2016-08-04T11:15:53.522Z,275
2016-08-04T11:16:53.555Z,275
2016-08-04T11:17:53.594Z,280
2016-08-04T11:18:53.627Z,285
2016-08-04T11:19:53.610Z,275
2016-08-04T11:20:53.715Z,270
2016-08-04T11:21:53.658Z,285
2016-08-04T11:22:53.684Z,290
2016-08-04T11:23:53.712Z,285
2016-08-04T11:24:53.736Z,280
2016-08-04T11:25:53.753Z,275
2016-08-04T11:26:53.768Z,275
2016-08-04T11:27:53.801Z,270
2016-08-04T11:28:53.820Z,275
2016-08-04T11:29:53.853Z,280
2016-08-04T11:30:53.874Z,285
2016-08-04T11:31:53.882Z,290
2016-08-04T11:32:54.643Z,300
2016-08-04T11:33:53.928Z,305
2016-08-04T11:34:53.969Z,310
2016-08-04T11:35:53.993Z,315
2016-08-04T11:36:54.010Z,320
2016-08-04T11:37:54.029Z,325
2016-08-04T11:38:54.054Z,330
2016-08-04T11:39:54.078Z,330
2016-08-04T11:40:54.092Z,325
2016-08-04T11:41:54.121Z,320
2016-08-04T11:42:54.142Z,315
2016-08-04T11:43:54.173Z,315
2016-08-04T11:44:54.191Z,315
2016-08-04T11:45:54.214Z,310
2016-08-04T11:46:54.232Z,310
2016-08-04T11:47:54.255Z,310
2016-08-04T11:48:54.280Z,280
2016-08-04T11:49:54.303Z,285
2016-08-04T11:50:54.334Z,290
2016-08-04T11:51:54.351Z,310
2016-08-04T11:52:54.365Z,290
2016-08-04T11:53:54.393Z,315
2016-08-04T11:54:54.427Z,300
2016-08-04T11:55:54.660Z,280
2016-08-04T11:56:54.466Z,275
2016-08-04T11:57:54.488Z,310
2016-08-04T11:58:54.506Z,335
2016-08-04T11:59:54.538Z,350
2016-08-04T12:00:54.561Z,325
2016-08-04T12:01:54.626Z,340
2016-08-04T12:02:54.598Z,325
2016-08-04T12:03:54.627Z,310
2016-08-04T12:04:54.659Z,310
2016-08-04T12:05:54.674Z,290
2016-08-04T12:06:54.689Z,315
2016-08-04T12:07:54.720Z,300
2016-08-04T12:08:54.754Z,315
2016-08-04T12:09:54.762Z,365
2016-08-04T12:10:54.787Z,350
2016-08-04T12:11:54.821Z,365
2016-08-04T12:12:54.834Z,365
2016-08-04T12:13:54.932Z,375
2016-08-04T12:14:54.878Z,365
2016-08-04T12:15:54.913Z,365
2016-08-04T12:16:54.924Z,360
2016-08-04T12:17:55.063Z,390
2016-08-04T12:18:54.966Z,365
2016-08-04T12:19:55.005Z,360
2016-08-04T12:20:55.015Z,325
2016-08-04T12:21:55.050Z,320
2016-08-04T12:22:55.072Z,305
2016-08-04T12:23:55.082Z,300
2016-08-04T12:24:55.162Z,300
2016-08-04T12:25:55.140Z,300
2016-08-04T12:26:55.150Z,300
2016-08-04T12:27:55.237Z,305
2016-08-04T12:28:55.252Z,305
2016-08-04T12:29:55.230Z,310
2016-08-04T12:30:55.257Z,310
2016-08-04T12:31:55.275Z,310
2016-08-04T12:32:55.302Z,305
2016-08-04T12:33:55.325Z,305
2016-08-04T12:34:55.339Z,300
2016-08-04T12:35:55.365Z,290
2016-08-04T12:36:55.388Z,280
2016-08-04T12:37:55.404Z,270
2016-08-04T12:38:55.446Z,265
2016-08-04T12:39:55.474Z,265
2016-08-04T12:40:55.491Z,265
2016-08-04T12:41:55.498Z,270
2016-08-04T12:42:55.533Z,270
2016-08-04T12:43:55.546Z,265
2016-08-04T12:44:55.580Z,265
2016-08-04T12:45:55.601Z,260
2016-08-04T12:46:55.626Z,260
2016-08-04T12:47:55.655Z,260
2016-08-04T12:48:55.668Z,260
2016-08-04T12:49:55.692Z,255
2016-08-04T12:50:55.730Z,255
2016-08-04T12:51:55.731Z,250
2016-08-04T12:52:55.771Z,250
2016-08-04T12:53:55.784Z,245
2016-08-04T12:54:55.816Z,245
2016-08-04T12:55:55.815Z,240
2016-08-04T12:56:55.864Z,245
2016-08-04T12:57:55.876Z,245
2016-08-04T12:58:55.899Z,250
2016-08-04T12:59:55.925Z,255
2016-08-04T13:00:55.944Z,260
2016-08-04T13:01:55.979Z,270
2016-08-04T13:02:55.990Z,275
2016-08-04T13:03:56.016Z,280
2016-08-04T13:04:56.032Z,285
2016-08-04T13:05:56.077Z,290
2016-08-04T13:06:56.082Z,295
2016-08-04T13:07:56.107Z,295
2016-08-04T13:08:56.128Z,295
2016-08-04T13:09:56.168Z,295
2016-08-04T13:10:56.170Z,295
2016-08-04T13:11:56.208Z,295
2016-08-04T13:12:56.211Z,290
2016-08-04T13:13:56.255Z,290
2016-08-04T13:14:56.281Z,285
2016-08-04T13:15:56.306Z,285
2016-08-04T13:16:56.303Z,285
2016-08-04T13:17:56.334Z,285
2016-08-04T13:18:56.361Z,280
2016-08-04T13:19:56.384Z,280
2016-08-04T13:20:56.407Z,280
2016-08-04T13:21:56.423Z,280
2016-08-04T13:22:56.487Z,275
2016-08-04T13:23:56.465Z,275
2016-08-04T13:24:56.497Z,275
2016-08-04T13:25:56.508Z,280
2016-08-04T13:26:56.543Z,275
2016-08-04T13:27:56.566Z,270
2016-08-04T13:28:57.293Z,275
2016-08-04T13:29:56.605Z,270
2016-08-04T13:30:56.626Z,260
2016-08-04T13:31:56.651Z,245
2016-08-04T13:32:56.665Z,230
2016-08-04T13:33:56.699Z,225
2016-08-04T13:34:56.731Z,215
2016-08-04T13:35:56.747Z,205
2016-08-04T13:36:56.778Z,200
2016-08-04T13:37:56.790Z,195
2016-08-04T13:38:56.806Z,190
2016-08-04T13:39:56.835Z,190
2016-08-04T13:40:56.864Z,185
2016-08-04T13:41:56.881Z,180
